Terminal Aerodrome Forecast
Issued by NWS

Home | Current Version | Previous Version | Text Only | Print | Product List | Glossary On
Versions: 1 2 3 4 5 6 7 8 9 10 11 12 13
000
FTUS45 KREV 241700
TAFTVL
TAF
KTVL 241720Z 2418/2518 19014G24KT P6SM SKC
     FM250300 19009KT P6SM SKC
     FM250800 18012G22KT P6SM SCT180=

USA.gov is the U.S. government's official web portal to all federal, state and local government web resources and services.